Time;durP1;ratioP1;P1;durP2;ratioP2;P2;SDS_P1;SDS_P2;PMS_P1;PMS_P2;Temp;Humidity;BMP_temperature;BMP_pressure;BME280_temperature;BME280_humidity;BME280_pressure;Samples;Min_cycle;Max_cycle;Signal;HPM_P1;HPM_P2
2022/02/18 00:01:16;;;;;;;17.63;5.07;;;9.90;99.90;;;;;;5074308;28;20559;-70
2022/02/18 00:03:45;;;;;;;19.55;5.50;;;9.90;99.90;;;;;;5074633;28;20206;-70
2022/02/18 00:06:11;;;;;;;23.58;5.75;;;9.90;99.90;;;;;;5074561;28;20699;-71
2022/02/18 00:08:38;;;;;;;24.20;4.65;;;9.90;99.90;;;;;;5074823;28;20269;-70
2022/02/18 00:11:05;;;;;;;27.65;4.47;;;9.90;99.90;;;;;;5073996;28;20234;-70
2022/02/18 00:13:32;;;;;;;33.47;6.05;;;9.90;99.90;;;;;;5073297;28;20207;-71
2022/02/18 00:15:59;;;;;;;14.07;5.32;;;10.00;99.90;;;;;;5074040;28;20207;-72
2022/02/18 00:18:25;;;;;;;16.70;5.05;;;10.00;99.90;;;;;;5073584;28;20670;-72
2022/02/18 00:20:52;;;;;;;18.48;4.88;;;9.90;99.90;;;;;;5074008;28;20211;-71
2022/02/18 00:23:18;;;;;;;22.45;5.07;;;9.90;99.90;;;;;;5072950;28;20261;-71
2022/02/18 00:25:45;;;;;;;22.77;5.40;;;9.90;99.90;;;;;;5073645;28;20204;-72
2022/02/18 00:28:11;;;;;;;21.23;5.50;;;9.80;99.90;;;;;;5074088;28;20261;-71
2022/02/18 00:30:38;;;;;;;16.55;4.50;;;9.80;99.90;;;;;;5074572;28;20200;-71
2022/02/18 00:33:04;;;;;;;21.38;5.60;;;9.80;99.90;;;;;;5072429;28;20207;-72
2022/02/18 00:35:31;;;;;;;17.48;4.60;;;9.90;99.90;;;;;;5072457;28;20196;-71
2022/02/18 00:37:57;;;;;;;26.45;5.85;;;9.80;99.90;;;;;;5073417;28;20651;-71
2022/02/18 00:40:25;;;;;;;12.30;4.13;;;9.80;99.90;;;;;;5073522;28;20199;-71
2022/02/18 00:42:52;;;;;;;15.55;5.07;;;9.90;99.90;;;;;;5072431;28;20207;-71
2022/02/18 00:45:19;;;;;;;21.30;5.20;;;9.90;99.90;;;;;;5073423;28;20214;-72
2022/02/18 00:47:46;;;;;;;23.42;5.95;;;9.80;99.90;;;;;;5073531;28;20203;-71
2022/02/18 00:50:13;;;;;;;21.95;4.90;;;9.80;99.90;;;;;;5073561;28;20228;-71
2022/02/18 00:52:39;;;;;;;18.77;5.13;;;9.80;99.90;;;;;;5073518;28;20566;-71
2022/02/18 00:55:07;;;;;;;18.02;5.55;;;9.80;99.90;;;;;;5073697;28;20200;-71
2022/02/18 00:57:34;;;;;;;21.90;4.60;;;9.80;99.90;;;;;;5073418;28;20556;-71
2022/02/18 01:00:00;;;;;;;20.25;4.30;;;9.80;99.90;;;;;;5071836;28;20196;-71
2022/02/18 01:02:27;;;;;;;30.58;5.85;;;9.80;99.90;;;;;;5072561;28;20207;-71
2022/02/18 01:04:53;;;;;;;20.88;5.53;;;9.80;99.90;;;;;;5073211;28;20609;-71
2022/02/18 01:07:20;;;;;;;17.35;5.13;;;9.80;99.90;;;;;;5072197;28;20322;-71
2022/02/18 01:09:46;;;;;;;15.15;4.25;;;9.90;99.90;;;;;;5071798;28;20269;-71
2022/02/18 01:12:13;;;;;;;24.30;5.38;;;9.80;99.90;;;;;;5071525;28;20200;-72
2022/02/18 01:14:39;;;;;;;21.33;5.60;;;9.90;99.90;;;;;;5071616;28;20196;-71
2022/02/18 01:17:06;;;;;;;23.20;5.38;;;9.90;99.90;;;;;;5071892;28;20204;-72
2022/02/18 01:19:32;;;;;;;19.95;5.82;;;9.90;99.90;;;;;;5073042;28;20569;-71
2022/02/18 01:21:58;;;;;;;23.27;6.00;;;9.90;99.90;;;;;;5075094;28;20207;-71
2022/02/18 01:24:25;;;;;;;19.55;4.88;;;9.90;99.90;;;;;;5077937;28;20196;-72
2022/02/18 01:26:51;;;;;;;18.70;5.45;;;9.90;99.90;;;;;;5077168;28;20663;-72
2022/02/18 01:29:18;;;;;;;32.63;7.15;;;9.90;99.90;;;;;;5076452;28;20219;-72
2022/02/18 01:31:45;;;;;;;16.48;4.82;;;9.90;99.90;;;;;;5078147;28;20203;-72
2022/02/18 01:34:12;;;;;;;23.17;5.30;;;9.90;99.90;;;;;;5077716;28;20195;-71
2022/02/18 01:36:38;;;;;;;33.22;6.05;;;9.80;99.90;;;;;;5077335;28;20691;-71
2022/02/18 01:39:04;;;;;;;21.05;4.80;;;9.90;99.90;;;;;;5059643;28;20203;-71
2022/02/18 01:41:31;;;;;;;18.48;5.00;;;9.90;99.90;;;;;;5077674;28;20191;-72
2022/02/18 01:44:00;;;;;;;16.90;4.60;;;9.90;99.90;;;;;;5076777;28;20200;-71
2022/02/18 01:46:27;;;;;;;22.13;5.97;;;9.90;99.90;;;;;;5077674;28;20532;-71
2022/02/18 01:48:55;;;;;;;21.60;5.40;;;9.80;99.90;;;;;;5077719;28;20220;-71
2022/02/18 01:51:23;;;;;;;15.57;5.28;;;9.80;99.90;;;;;;5077489;28;20199;-71
2022/02/18 01:53:50;;;;;;;23.02;4.47;;;9.80;99.90;;;;;;5077688;28;20672;-71
2022/02/18 01:56:18;;;;;;;20.83;4.35;;;9.80;99.90;;;;;;5077858;28;20200;-71
2022/02/18 01:58:45;;;;;;;16.90;5.95;;;9.80;99.90;;;;;;5076278;28;20214;-71
2022/02/18 02:01:12;;;;;;;25.25;5.60;;;9.80;99.90;;;;;;5076754;28;20208;-70
2022/02/18 02:03:40;;;;;;;21.10;4.80;;;9.80;99.90;;;;;;5076518;28;20604;-70
2022/02/18 02:06:07;;;;;;;19.40;4.15;;;9.80;99.90;;;;;;5076598;28;20235;-70
2022/02/18 02:08:35;;;;;;;14.10;4.13;;;9.70;99.90;;;;;;5076887;28;20208;-71
2022/02/18 02:11:03;;;;;;;13.68;4.50;;;9.70;99.90;;;;;;5077005;28;20296;-71
2022/02/18 02:13:43;;;;;;;16.05;4.40;;;9.70;99.90;;;;;;5077103;28;20211;-70
2022/02/18 02:16:13;;;;;;;14.65;5.07;;;9.60;99.90;;;;;;5076956;28;20215;-71
2022/02/18 02:18:39;;;;;;;12.07;4.28;;;9.70;99.90;;;;;;5076360;28;20207;-70
2022/02/18 02:21:06;;;;;;;19.80;4.88;;;9.70;99.90;;;;;;5076435;28;20629;-70
2022/02/18 02:23:33;;;;;;;20.92;4.80;;;9.70;99.90;;;;;;5076398;28;20258;-70
2022/02/18 02:26:00;;;;;;;17.00;3.97;;;9.70;99.90;;;;;;5075509;28;20195;-70
2022/02/18 02:28:26;;;;;;;21.25;4.35;;;9.70;99.90;;;;;;5076160;28;20200;-71
2022/02/18 02:30:53;;;;;;;24.40;5.30;;;9.70;99.90;;;;;;5075732;28;20211;-71
2022/02/18 02:33:20;;;;;;;22.25;5.22;;;9.60;99.90;;;;;;5075342;28;20215;-70
2022/02/18 02:35:47;;;;;;;16.02;4.75;;;9.70;99.90;;;;;;5076156;28;20207;-70
2022/02/18 02:38:13;;;;;;;17.60;4.55;;;9.60;99.90;;;;;;5075970;28;20196;-71
2022/02/18 02:40:40;;;;;;;13.77;4.20;;;9.60;99.90;;;;;;5076261;28;20238;-71
2022/02/18 02:43:06;;;;;;;22.58;4.95;;;9.60;99.90;;;;;;5076138;28;20211;-72
2022/02/18 02:45:33;;;;;;;26.13;4.90;;;9.60;99.90;;;;;;5074985;28;20203;-72
2022/02/18 02:47:59;;;;;;;13.30;4.57;;;9.60;99.90;;;;;;5074625;28;20689;-72
2022/02/18 02:50:26;;;;;;;17.95;4.45;;;9.60;99.90;;;;;;5075742;28;20220;-72
2022/02/18 02:52:52;;;;;;;13.65;3.70;;;9.60;99.90;;;;;;5076364;28;20204;-72
2022/02/18 02:55:19;;;;;;;18.75;4.95;;;9.60;99.90;;;;;;5075841;28;20204;-72
2022/02/18 02:57:46;;;;;;;22.67;5.25;;;9.70;99.90;;;;;;5074894;28;20574;-72
2022/02/18 03:00:13;;;;;;;19.95;4.90;;;9.70;99.90;;;;;;5075722;28;20636;-72
2022/02/18 03:02:40;;;;;;;18.58;4.88;;;9.70;99.90;;;;;;5074433;28;20204;-72
2022/02/18 03:05:07;;;;;;;21.90;5.88;;;9.60;99.90;;;;;;5075563;28;20228;-72
2022/02/18 03:07:34;;;;;;;22.67;4.40;;;9.60;99.90;;;;;;5075779;28;20224;-72
2022/02/18 03:10:01;;;;;;;21.73;5.55;;;9.60;99.90;;;;;;5075983;28;20224;-72
2022/02/18 03:12:28;;;;;;;15.30;4.05;;;9.50;99.90;;;;;;5074213;28;20687;-72
2022/02/18 03:14:54;;;;;;;13.73;4.32;;;9.50;99.90;;;;;;5074275;28;20196;-72
2022/02/18 03:17:22;;;;;;;18.30;4.75;;;9.40;99.90;;;;;;5075107;28;20200;-72
2022/02/18 03:19:48;;;;;;;10.45;3.20;;;9.30;99.90;;;;;;5074978;28;20729;-72
2022/02/18 03:22:16;;;;;;;14.10;4.00;;;9.40;99.90;;;;;;5073909;28;20200;-72
2022/02/18 03:24:43;;;;;;;14.43;4.03;;;9.30;99.90;;;;;;5074822;28;20196;-72
2022/02/18 03:27:10;;;;;;;16.67;4.10;;;9.40;99.90;;;;;;5074541;28;20549;-72
2022/02/18 03:29:36;;;;;;;17.15;3.97;;;9.40;99.90;;;;;;5074365;28;20220;-72
2022/02/18 03:32:04;;;;;;;19.13;4.13;;;9.40;99.90;;;;;;5074610;28;20203;-72
2022/02/18 03:34:31;;;;;;;11.07;3.78;;;9.40;99.90;;;;;;5073761;28;20196;-73
2022/02/18 03:36:58;;;;;;;15.35;3.67;;;9.40;99.90;;;;;;5074518;28;20204;-73
2022/02/18 03:39:24;;;;;;;12.63;3.80;;;9.30;99.90;;;;;;5074351;28;20628;-73
2022/02/18 03:41:51;;;;;;;12.27;4.18;;;9.30;99.90;;;;;;5073502;28;20279;-72
2022/02/18 03:44:17;;;;;;;23.02;5.43;;;9.20;99.90;;;;;;5074301;28;20215;-72
2022/02/18 03:46:44;;;;;;;22.55;5.50;;;9.20;99.90;;;;;;5073707;28;20241;-72
2022/02/18 03:49:10;;;;;;;12.48;3.80;;;9.20;99.90;;;;;;5074384;28;20223;-70
2022/02/18 03:51:37;;;;;;;21.60;4.03;;;9.10;99.90;;;;;;5074738;28;20200;-70
2022/02/18 03:54:04;;;;;;;13.30;3.55;;;9.10;99.90;;;;;;5073387;28;20200;-71
2022/02/18 03:56:31;;;;;;;21.02;4.75;;;9.10;99.90;;;;;;5075244;28;20667;-71
2022/02/18 03:58:57;;;;;;;21.73;5.80;;;9.10;99.90;;;;;;5074957;28;20216;-71
2022/02/18 04:01:23;;;;;;;12.90;4.85;;;9.10;99.90;;;;;;5073176;28;20212;-71
2022/02/18 04:03:50;;;;;;;17.00;4.55;;;9.00;99.90;;;;;;5074630;28;20249;-71
2022/02/18 04:06:16;;;;;;;15.52;3.92;;;9.00;99.90;;;;;;5074488;28;20281;-71
2022/02/18 04:08:43;;;;;;;12.27;3.38;;;9.00;99.90;;;;;;5074883;28;20682;-71
2022/02/18 04:11:09;;;;;;;16.63;4.55;;;9.00;99.90;;;;;;5074675;28;20706;-71
2022/02/18 04:13:35;;;;;;;19.52;4.82;;;9.00;99.90;;;;;;5074279;28;20200;-71
2022/02/18 04:16:02;;;;;;;13.15;3.38;;;8.90;99.90;;;;;;5074102;28;20196;-71
2022/02/18 04:18:28;;;;;;;16.75;3.92;;;8.90;99.90;;;;;;5056254;28;20226;-71
2022/02/18 04:20:55;;;;;;;12.55;4.13;;;8.90;99.90;;;;;;5074345;28;20557;-71
2022/02/18 04:23:21;;;;;;;16.52;3.78;;;8.90;99.90;;;;;;5074041;28;20562;-71
2022/02/18 04:25:48;;;;;;;20.50;4.82;;;8.90;99.90;;;;;;5074071;28;20211;-71
2022/02/18 04:28:14;;;;;;;14.85;3.65;;;8.90;99.90;;;;;;5072074;28;20204;-71
2022/02/18 04:30:41;;;;;;;18.20;3.97;;;8.90;99.90;;;;;;5072326;28;20219;-71
2022/02/18 04:33:07;;;;;;;19.13;4.00;;;8.80;99.90;;;;;;5073876;28;20667;-71
2022/02/18 04:35:34;;;;;;;15.55;4.15;;;8.90;99.90;;;;;;5073818;28;20192;-71
2022/02/18 04:38:01;;;;;;;17.70;4.90;;;8.90;99.90;;;;;;5074019;28;20196;-71
2022/02/18 04:40:28;;;;;;;18.85;3.75;;;8.90;99.90;;;;;;5073832;28;20200;-71
2022/02/18 04:42:54;;;;;;;13.98;4.25;;;8.90;99.90;;;;;;5073628;28;20207;-71
2022/02/18 04:45:20;;;;;;;14.05;4.13;;;8.90;99.90;;;;;;5073545;28;20729;-71
2022/02/18 04:47:47;;;;;;;15.63;3.78;;;8.90;99.90;;;;;;5072966;28;20273;-71
2022/02/18 04:50:13;;;;;;;13.00;4.00;;;8.90;99.90;;;;;;5073849;28;20247;-71
2022/02/18 04:52:40;;;;;;;22.23;4.50;;;8.90;99.90;;;;;;5074331;28;20602;-71
2022/02/18 04:55:07;;;;;;;15.38;4.15;;;8.90;99.90;;;;;;5072848;28;20207;-71
2022/02/18 04:57:34;;;;;;;16.73;4.07;;;9.00;99.90;;;;;;5073391;28;20196;-71
2022/02/18 05:00:02;;;;;;;13.73;4.15;;;8.90;99.90;;;;;;5073736;28;20609;-71
2022/02/18 05:02:28;;;;;;;16.27;3.63;;;8.90;99.90;;;;;;5073784;28;20203;-71
2022/02/18 05:04:55;;;;;;;12.30;3.80;;;9.00;99.90;;;;;;5073447;28;20236;-71
2022/02/18 05:07:22;;;;;;;18.90;3.70;;;9.00;99.90;;;;;;5073747;28;20409;-71
2022/02/18 05:09:49;;;;;;;20.05;4.20;;;8.90;99.90;;;;;;5072212;28;20231;-71
2022/02/18 05:12:15;;;;;;;12.82;3.28;;;9.00;99.90;;;;;;5073384;28;20204;-71
2022/02/18 05:14:42;;;;;;;12.30;3.75;;;8.90;99.90;;;;;;5073489;28;20207;-71
2022/02/18 05:17:08;;;;;;;14.93;4.20;;;8.90;99.90;;;;;;5073437;28;20200;-71
2022/02/18 05:19:35;;;;;;;15.38;4.22;;;8.90;99.90;;;;;;5073563;28;20207;-71
2022/02/18 05:22:01;;;;;;;14.98;4.45;;;8.90;99.90;;;;;;5073313;28;20203;-71
2022/02/18 05:24:28;;;;;;;13.63;3.58;;;8.80;99.90;;;;;;5073452;28;20200;-71
2022/02/18 05:26:54;;;;;;;20.90;4.80;;;8.90;99.90;;;;;;5073038;28;20623;-71
2022/02/18 05:29:21;;;;;;;19.45;3.92;;;8.90;99.90;;;;;;5071367;28;20260;-71
2022/02/18 05:31:47;;;;;;;22.08;4.18;;;8.90;99.90;;;;;;5072595;28;20632;-71
2022/02/18 05:34:14;;;;;;;28.02;4.25;;;8.90;99.90;;;;;;5073369;28;20666;-71
2022/02/18 05:36:40;;;;;;;16.88;4.03;;;8.90;99.90;;;;;;5073064;28;20196;-71
2022/02/18 05:39:07;;;;;;;14.00;4.05;;;8.90;99.90;;;;;;5071401;28;20203;-71
2022/02/18 05:41:33;;;;;;;17.80;4.45;;;8.90;99.90;;;;;;5072801;28;20208;-71
2022/02/18 05:43:59;;;;;;;16.60;3.60;;;8.90;99.90;;;;;;5071925;28;20215;-71
2022/02/18 05:46:26;;;;;;;16.00;5.55;;;8.90;99.90;;;;;;5072721;28;20260;-71
2022/02/18 05:48:52;;;;;;;7.68;3.55;;;8.90;99.90;;;;;;5072566;28;20652;-71
2022/02/18 05:51:19;;;;;;;16.70;3.80;;;8.90;99.90;;;;;;5072506;28;20219;-71
2022/02/18 05:53:45;;;;;;;12.20;3.53;;;8.90;99.90;;;;;;5071017;28;20196;-71
2022/02/18 05:56:12;;;;;;;21.42;5.05;;;8.90;99.90;;;;;;5072557;28;20314;-71
2022/02/18 05:58:38;;;;;;;19.38;4.30;;;8.90;99.90;;;;;;5072720;28;20199;-71
2022/02/18 06:01:04;;;;;;;15.52;4.55;;;8.90;99.90;;;;;;5072703;28;20212;-71
2022/02/18 06:03:31;;;;;;;14.45;3.88;;;8.90;99.90;;;;;;5072326;28;20204;-71
2022/02/18 06:05:57;;;;;;;13.07;3.38;;;8.80;99.90;;;;;;5072334;28;20623;-71
2022/02/18 06:08:24;;;;;;;17.77;4.50;;;8.80;99.90;;;;;;5073518;28;20207;-71
2022/02/18 06:10:50;;;;;;;14.43;3.50;;;8.80;99.90;;;;;;5076178;28;20216;-71
2022/02/18 06:13:18;;;;;;;18.45;4.45;;;8.80;99.90;;;;;;5076083;28;20195;-71
2022/02/18 06:15:46;;;;;;;16.58;4.15;;;8.80;99.90;;;;;;5075990;28;20200;-71
2022/02/18 06:18:12;;;;;;;16.33;4.40;;;8.80;99.90;;;;;;5075814;28;20223;-72
2022/02/18 06:20:39;;;;;;;14.90;3.45;;;8.70;99.90;;;;;;5076118;28;20212;-71
2022/02/18 06:23:05;;;;;;;17.30;3.90;;;8.80;99.90;;;;;;5076090;28;20207;-71
2022/02/18 06:25:31;;;;;;;19.15;4.15;;;8.80;99.90;;;;;;5075970;28;20207;-71
2022/02/18 06:28:10;;;;;;;24.63;5.38;;;8.80;99.90;;;;;;5075419;28;20200;-71
2022/02/18 06:30:40;;;;;;;18.75;5.40;;;8.80;99.90;;;;;;5075696;28;20212;-71
2022/02/18 06:33:07;;;;;;;12.43;5.78;;;8.80;99.90;;;;;;5074577;28;20284;-71
2022/02/18 06:35:36;;;;;;;17.35;5.25;;;8.90;99.90;;;;;;5075813;28;20192;-71
2022/02/18 06:38:03;;;;;;;17.52;5.07;;;8.90;99.90;;;;;;5074435;28;20269;-72
2022/02/18 06:40:30;;;;;;;19.10;8.20;;;8.90;99.90;;;;;;5076941;28;20337;-71
2022/02/18 06:42:56;;;;;;;19.10;8.35;;;8.80;99.90;;;;;;5076237;28;20690;-72
2022/02/18 06:45:23;;;;;;;19.15;6.05;;;8.90;99.90;;;;;;5077829;28;20604;-71
2022/02/18 06:47:49;;;;;;;23.05;4.75;;;8.90;99.90;;;;;;5075448;28;20211;-71
2022/02/18 06:50:17;;;;;;;29.20;6.28;;;8.80;99.90;;;;;;5075339;28;20215;-71
2022/02/18 06:52:44;;;;;;;18.33;4.72;;;8.80;99.90;;;;;;5075936;28;20681;-71
2022/02/18 06:55:12;;;;;;;22.95;5.05;;;8.90;99.90;;;;;;5075402;28;20215;-71
2022/02/18 06:57:43;;;;;;;17.30;4.32;;;8.80;99.90;;;;;;5075544;28;20570;-71
2022/02/18 07:00:13;;;;;;;10.90;3.72;;;8.80;99.90;;;;;;5076249;28;20208;-71
2022/02/18 07:02:40;;;;;;;13.75;4.00;;;8.70;99.90;;;;;;5076082;28;20569;-71
2022/02/18 07:05:08;;;;;;;20.60;6.00;;;8.70;99.90;;;;;;5075475;28;20240;-71
2022/02/18 07:07:35;;;;;;;14.20;4.93;;;8.70;99.90;;;;;;5075292;28;20695;-71
2022/02/18 07:10:03;;;;;;;18.70;4.50;;;8.60;99.90;;;;;;5076010;28;20257;-71
2022/02/18 07:12:30;;;;;;;14.80;5.78;;;8.60;99.90;;;;;;5076200;28;20200;-71
2022/02/18 07:14:57;;;;;;;25.83;8.52;;;8.60;99.90;;;;;;5076371;28;20210;-72
2022/02/18 07:17:25;;;;;;;44.85;19.02;;;8.50;99.90;;;;;;5077020;28;20229;-72
2022/02/18 07:19:53;;;;;;;34.17;13.88;;;8.50;99.90;;;;;;5076511;28;20200;-72
2022/02/18 07:22:19;;;;;;;29.90;10.40;;;8.50;99.90;;;;;;5076020;28;20539;-71
2022/02/18 07:24:47;;;;;;;23.35;5.30;;;8.50;99.90;;;;;;5076338;28;20215;-72
2022/02/18 07:27:14;;;;;;;23.05;9.80;;;8.50;99.90;;;;;;5076372;28;20200;-72
2022/02/18 07:29:41;;;;;;;16.42;5.03;;;8.50;99.90;;;;;;5077467;28;20682;-72
2022/02/18 07:32:10;;;;;;;25.23;6.15;;;8.60;99.90;;;;;;5076333;28;20196;-72
2022/02/18 07:34:36;;;;;;;13.35;3.40;;;8.60;99.90;;;;;;5074740;28;20211;-72
2022/02/18 07:37:03;;;;;;;26.02;7.00;;;8.50;99.90;;;;;;5077541;28;20284;-72
2022/02/18 07:39:30;;;;;;;21.58;8.38;;;8.50;99.90;;;;;;5077440;28;20615;-72
2022/02/18 07:41:57;;;;;;;28.65;9.75;;;8.50;99.90;;;;;;5078151;28;20265;-72
2022/02/18 07:44:23;;;;;;;40.17;20.05;;;8.50;99.90;;;;;;5062853;28;20204;-72
2022/02/18 07:46:50;;;;;;;32.58;12.90;;;8.60;99.90;;;;;;5078094;28;20204;-72
2022/02/18 07:49:16;;;;;;;20.95;4.90;;;8.60;99.90;;;;;;5078136;28;20200;-72
2022/02/18 07:51:43;;;;;;;14.45;5.68;;;8.60;99.90;;;;;;5075995;28;20219;-72
2022/02/18 07:54:09;;;;;;;17.52;5.00;;;8.60;99.90;;;;;;5076046;28;20264;-72
2022/02/18 07:56:35;;;;;;;16.88;4.85;;;8.60;99.90;;;;;;5075811;28;20577;-72
2022/02/18 07:59:02;;;;;;;16.20;4.75;;;8.60;99.90;;;;;;5076674;28;20203;-72
2022/02/18 08:01:28;;;;;;;24.85;6.15;;;8.60;99.90;;;;;;5076674;28;20207;-73
2022/02/18 08:03:56;;;;;;;12.70;4.03;;;8.70;99.90;;;;;;5075633;28;20203;-72
2022/02/18 08:06:22;;;;;;;18.70;4.97;;;8.70;99.90;;;;;;5055391;28;20224;-72
2022/02/18 08:08:49;;;;;;;10.63;4.97;;;8.70;99.90;;;;;;5054087;28;20212;-72
2022/02/18 08:11:18;;;;;;;12.57;4.43;;;8.80;99.90;;;;;;5053967;28;20692;-72
2022/02/18 08:13:45;;;;;;;18.13;4.45;;;8.80;99.90;;;;;;5053651;28;20266;-72
2022/02/18 08:16:14;;;;;;;14.55;4.20;;;8.80;99.90;;;;;;5053194;28;20211;-73
2022/02/18 08:18:43;;;;;;;13.60;4.28;;;8.80;99.90;;;;;;5056289;28;20201;-72
2022/02/18 08:21:13;;;;;;;17.38;5.00;;;8.80;99.90;;;;;;5055207;28;20231;-72
2022/02/18 08:23:41;;;;;;;19.77;4.50;;;8.90;99.90;;;;;;5055105;28;20291;-71
2022/02/18 08:26:08;;;;;;;11.65;3.90;;;8.90;99.90;;;;;;5053770;28;20200;-71
2022/02/18 08:28:34;;;;;;;11.52;3.60;;;8.90;99.90;;;;;;5053471;28;20207;-72
2022/02/18 08:31:02;;;;;;;12.40;4.22;;;9.00;99.90;;;;;;5053702;28;20692;-72
2022/02/18 08:33:28;;;;;;;14.38;4.28;;;9.00;99.90;;;;;;5054426;28;20211;-72
2022/02/18 08:35:55;;;;;;;13.50;3.60;;;9.10;99.90;;;;;;5053000;28;20201;-72
2022/02/18 08:38:21;;;;;;;15.88;3.67;;;9.10;99.90;;;;;;5054336;28;20204;-72
2022/02/18 08:40:48;;;;;;;14.23;3.85;;;9.20;99.90;;;;;;5053137;28;20215;-72
2022/02/18 08:43:14;;;;;;;16.25;5.07;;;9.30;99.90;;;;;;5054056;28;20200;-71
2022/02/18 08:45:41;;;;;;;9.13;3.67;;;9.30;99.90;;;;;;5053661;28;20200;-71
2022/02/18 08:48:08;;;;;;;14.68;4.20;;;9.40;99.90;;;;;;5051903;28;20205;-71
2022/02/18 08:50:34;;;;;;;9.32;3.20;;;9.40;99.90;;;;;;5052397;28;20695;-71
2022/02/18 08:53:01;;;;;;;9.68;3.40;;;9.40;99.90;;;;;;5053535;28;20677;-71
2022/02/18 08:55:29;;;;;;;13.93;4.40;;;9.40;99.90;;;;;;5053675;28;20204;-71
2022/02/18 08:57:57;;;;;;;13.98;3.95;;;9.50;99.90;;;;;;5053253;28;20204;-71
2022/02/18 09:00:24;;;;;;;13.57;5.18;;;9.50;99.90;;;;;;5053237;28;20644;-71
2022/02/18 09:02:50;;;;;;;7.80;2.85;;;9.50;99.90;;;;;;5053262;28;20270;-71
2022/02/18 09:05:17;;;;;;;19.40;5.55;;;9.50;99.90;;;;;;5063979;28;20687;-71
2022/02/18 09:07:44;;;;;;;13.85;4.60;;;9.50;99.90;;;;;;5073231;28;20235;-71
2022/02/18 09:10:12;;;;;;;7.47;3.83;;;9.50;99.90;;;;;;5073505;28;20203;-72
2022/02/18 09:12:40;;;;;;;11.90;4.43;;;9.60;99.90;;;;;;5072914;28;20204;-71
2022/02/18 09:15:13;;;;;;;10.80;5.13;;;9.60;99.90;;;;;;5073377;28;20204;-71
2022/02/18 09:17:40;;;;;;;13.52;4.53;;;9.60;99.90;;;;;;5073937;28;20195;-72
2022/02/18 09:20:07;;;;;;;16.35;3.63;;;9.60;99.90;;;;;;5074541;28;20204;-72
2022/02/18 09:22:34;;;;;;;9.32;3.25;;;9.60;99.90;;;;;;5073892;28;20696;-71
2022/02/18 09:25:00;;;;;;;11.02;3.90;;;9.70;99.90;;;;;;5073486;28;20196;-71
2022/02/18 09:27:27;;;;;;;9.82;3.90;;;9.70;99.90;;;;;;5072045;28;20195;-71
2022/02/18 09:29:53;;;;;;;12.00;3.33;;;9.80;99.90;;;;;;5073774;28;20199;-71
2022/02/18 09:32:20;;;;;;;7.85;3.15;;;9.90;99.90;;;;;;5073417;28;20220;-72
2022/02/18 09:34:46;;;;;;;12.57;3.00;;;10.00;99.90;;;;;;5072970;28;20278;-72
2022/02/18 09:37:15;;;;;;;9.30;3.20;;;10.00;99.90;;;;;;5071598;28;20660;-72
2022/02/18 09:39:43;;;;;;;16.60;4.28;;;10.10;99.90;;;;;;5074116;28;20200;-72
2022/02/18 09:42:17;;;;;;;10.15;3.03;;;10.10;99.90;;;;;;5074623;28;20204;-72
2022/02/18 09:44:43;;;;;;;10.20;3.33;;;10.10;99.90;;;;;;5076057;28;20249;-71
2022/02/18 09:47:14;;;;;;;12.82;3.63;;;10.30;99.90;;;;;;5076800;28;20207;-71
2022/02/18 09:49:42;;;;;;;13.27;3.45;;;10.30;99.90;;;;;;5077455;28;20204;-71
2022/02/18 09:52:11;;;;;;;9.15;3.75;;;10.40;99.90;;;;;;5076499;28;20236;-71
2022/02/18 09:54:37;;;;;;;8.48;3.25;;;10.50;99.90;;;;;;5076946;28;20656;-71
2022/02/18 09:57:04;;;;;;;10.85;4.43;;;10.50;99.90;;;;;;5077088;28;20199;-71
2022/02/18 09:59:32;;;;;;;14.80;6.22;;;10.50;99.90;;;;;;5077036;28;20253;-71
2022/02/18 10:02:01;;;;;;;9.68;4.15;;;10.60;99.90;;;;;;5076842;28;20208;-72
2022/02/18 10:04:27;;;;;;;14.93;5.72;;;10.60;99.90;;;;;;5075200;28;20715;-72
2022/02/18 10:06:54;;;;;;;8.48;4.30;;;10.60;99.90;;;;;;5077312;28;20223;-71
2022/02/18 10:09:40;;;;;;;12.40;3.42;;;10.70;99.90;;;;;;5076636;28;20584;-72
2022/02/18 10:12:09;;;;;;;17.20;5.17;;;10.80;99.90;;;;;;5076553;28;20246;-72
2022/02/18 10:14:57;;;;;;;8.35;3.60;;;11.00;99.90;;;;;;5076418;28;20622;-72
2022/02/18 10:17:45;;;;;;;4.47;2.85;;;11.10;99.90;;;;;;5075878;28;20188;-72
2022/02/18 10:20:21;;;;;;;7.32;2.72;;;11.20;99.90;;;;;;5076308;28;20203;-72
2022/02/18 10:23:02;;;;;;;11.45;4.50;;;11.40;99.90;;;;;;5076679;28;20192;-72
2022/02/18 10:25:31;;;;;;;3.75;3.17;;;11.60;99.90;;;;;;5076025;28;20200;-72
2022/02/18 10:27:58;;;;;;;10.13;2.10;;;11.70;99.90;;;;;;5075926;28;20200;-72
2022/02/18 10:30:27;;;;;;;7.37;2.93;;;11.80;99.90;;;;;;5077259;28;20606;-72
2022/02/18 10:32:56;;;;;;;7.40;2.10;;;12.00;99.90;;;;;;5076127;28;20610;-71
2022/02/18 10:35:35;;;;;;;2.90;1.73;;;12.20;99.90;;;;;;5077085;28;20617;-71
2022/02/18 10:38:03;;;;;;;7.40;1.43;;;12.50;99.90;;;;;;5074835;28;20570;-72
2022/02/18 10:40:31;;;;;;;4.07;1.80;;;12.70;99.90;;;;;;5076064;28;20610;-72
2022/02/18 10:43:07;;;;;;;4.67;2.60;;;12.90;99.90;;;;;;5075850;28;20665;-72
2022/02/18 10:45:34;;;;;;;5.00;1.90;;;13.10;99.90;;;;;;5075433;28;20570;-71
2022/02/18 10:48:10;;;;;;;4.00;1.50;;;13.30;99.90;;;;;;5075779;28;21137;-72
2022/02/18 10:50:37;;;;;;;1.43;1.20;;;13.50;99.90;;;;;;5076053;28;20657;-71
2022/02/18 10:53:14;;;;;;;1.93;1.50;;;13.60;99.90;;;;;;5075309;28;20617;-71
2022/02/18 10:56:12;;;;;;;3.30;1.20;;;13.80;99.90;;;;;;5074659;28;20625;-71
2022/02/18 10:58:57;;;;;;;6.77;1.20;;;14.00;99.90;;;;;;5065782;28;20700;-72
2022/02/18 11:01:25;;;;;;;2.40;1.20;;;14.00;99.90;;;;;;5075202;28;20983;-72
2022/02/18 11:04:03;;;;;;;3.53;1.30;;;14.10;99.90;;;;;;5075422;28;20602;-72
2022/02/18 11:06:36;;;;;;;1.97;1.10;;;14.10;99.90;;;;;;5075337;28;20656;-72
2022/02/18 11:09:06;;;;;;;2.63;1.20;;;14.00;99.90;;;;;;5075080;28;20583;-73
2022/02/18 11:11:37;;;;;;;2.53;1.53;;;14.30;99.90;;;;;;5075368;28;20658;-71
2022/02/18 11:14:06;;;;;;;2.13;1.37;;;14.40;99.90;;;;;;5075031;28;20695;-71
2022/02/18 11:16:34;;;;;;;1.83;1.20;;;14.30;99.90;;;;;;5074656;28;20660;-71
2022/02/18 11:19:02;;;;;;;8.73;1.40;;;14.40;99.90;;;;;;5075053;28;20611;-71
2022/02/18 11:21:30;;;;;;;4.60;1.73;;;14.50;99.90;;;;;;5074550;28;20626;-71
2022/02/18 11:23:59;;;;;;;2.20;1.00;;;14.50;99.90;;;;;;5075095;28;20615;-71
2022/02/18 11:26:28;;;;;;;5.80;1.30;;;14.90;99.90;;;;;;5075309;28;20637;-71
2022/02/18 11:28:55;;;;;;;4.40;1.20;;;14.90;99.90;;;;;;5075180;28;20621;-71
2022/02/18 11:31:30;;;;;;;4.90;1.30;;;14.70;99.90;;;;;;5074789;28;20699;-71
2022/02/18 11:34:15;;;;;;;2.50;1.20;;;14.40;99.90;;;;;;5074629;28;20656;-71
2022/02/18 11:37:00;;;;;;;2.10;1.20;;;14.40;99.90;;;;;;5074699;28;20635;-71
2022/02/18 11:39:47;;;;;;;6.30;1.60;;;14.40;99.90;;;;;;5074830;28;20607;-71
2022/02/18 11:42:25;;;;;;;2.40;1.17;;;14.40;99.90;;;;;;5074474;28;21156;-71
2022/02/18 11:44:52;;;;;;;2.33;1.23;;;14.30;99.90;;;;;;5074889;28;20594;-71
2022/02/18 11:47:24;;;;;;;2.53;1.17;;;14.30;99.90;;;;;;5074378;28;20610;-71
2022/02/18 11:49:52;;;;;;;1.33;1.00;;;14.20;99.90;;;;;;5074376;28;20610;-71
2022/02/18 11:52:21;;;;;;;5.10;1.80;;;14.20;99.90;;;;;;5074474;28;20703;-71
2022/02/18 11:54:48;;;;;;;2.13;1.40;;;14.20;99.90;;;;;;5074486;28;21043;-72
2022/02/18 11:57:19;;;;;;;3.83;1.30;;;14.30;99.90;;;;;;5056473;28;20622;-71
2022/02/18 12:00:16;;;;;;;3.08;1.40;;;14.30;99.90;;;;;;5076147;28;20780;-72
2022/02/18 12:02:51;;;;;;;7.40;1.10;;;14.40;99.90;;;;;;5077560;28;20325;-71
2022/02/18 12:05:20;;;;;;;1.80;1.30;;;14.60;99.90;;;;;;5078498;28;20649;-71
2022/02/18 12:07:53;;;;;;;1.20;0.73;;;14.80;99.90;;;;;;5075817;28;20654;-71
2022/02/18 12:10:25;;;;;;;1.23;0.90;;;15.00;99.90;;;;;;5077288;28;20583;-71
2022/02/18 12:13:09;;;;;;;1.97;1.13;;;15.00;99.90;;;;;;5076654;28;20692;-72
2022/02/18 12:15:38;;;;;;;1.20;0.83;;;15.10;99.90;;;;;;5076721;28;20571;-71
2022/02/18 12:18:08;;;;;;;2.23;1.10;;;15.10;99.90;;;;;;5076035;28;20630;-71
2022/02/18 12:20:39;;;;;;;0.70;0.63;;;15.10;99.90;;;;;;5077595;28;21210;-71
2022/02/18 12:23:26;;;;;;;1.13;1.00;;;15.20;99.90;;;;;;5076225;28;20636;-72
2022/02/18 12:26:24;;;;;;;3.17;1.10;;;15.30;99.90;;;;;;5077321;28;20994;-72
2022/02/18 12:29:11;;;;;;;1.00;0.90;;;15.30;99.90;;;;;;5076769;28;20636;-72
2022/02/18 12:31:51;;;;;;;1.80;1.07;;;15.30;99.90;;;;;;5077870;28;20748;-72
2022/02/18 12:34:28;;;;;;;1.10;0.80;;;15.20;99.90;;;;;;5079344;28;20605;-71
2022/02/18 12:36:55;;;;;;;1.63;0.67;;;15.20;99.90;;;;;;5077945;28;20625;-71
2022/02/18 12:39:34;;;;;;;0.90;0.90;;;15.10;99.90;;;;;;5077136;28;21167;-71
2022/02/18 12:42:09;;;;;;;1.07;0.97;;;15.10;99.90;;;;;;5077631;28;21195;-71
2022/02/18 12:44:51;;;;;;;0.87;0.83;;;15.00;99.90;;;;;;5078559;28;20613;-71
2022/02/18 12:47:23;;;;;;;0.83;0.83;;;14.90;99.90;;;;;;5079561;28;20586;-71
2022/02/18 12:49:52;;;;;;;1.20;1.10;;;14.90;99.90;;;;;;5077589;28;20694;-71
2022/02/18 12:52:19;;;;;;;1.20;1.10;;;14.80;99.90;;;;;;5078727;28;20729;-71